Time;durP1;ratioP1;P1;durP2;ratioP2;P2;SDS_P1;SDS_P2;PMS_P1;PMS_P2;Temp;Humidity;BMP_temperature;BMP_pressure;BME280_temperature;BME280_humidity;BME280_pressure;Samples;Min_cycle;Max_cycle;Signal;HPM_P1;HPM_P2
2022/04/29 00:01:23;;;;;;;3.50;1.90;;;;;;;2.70;72.05;101818.56;4976318;28;20082;-64
2022/04/29 00:03:53;;;;;;;5.37;2.77;;;;;;;2.59;72.28;101794.63;4958761;28;20325;-64
2022/04/29 00:06:21;;;;;;;2.83;2.37;;;;;;;2.70;72.48;101809.84;4976553;28;20054;-62
2022/04/29 00:08:47;;;;;;;3.13;2.30;;;;;;;2.69;72.83;101806.34;4976287;28;20271;-62
2022/04/29 00:11:12;;;;;;;2.03;1.87;;;;;;;2.71;73.30;101814.16;4976300;28;20093;-61
2022/04/29 00:13:38;;;;;;;5.03;2.30;;;;;;;2.72;73.21;101806.19;4976341;28;20045;-60
2022/04/29 00:16:05;;;;;;;3.67;2.60;;;;;;;2.56;73.47;101776.41;4975865;28;20138;-61
2022/04/29 00:18:31;;;;;;;2.57;1.93;;;;;;;2.52;73.64;101777.50;4975770;28;20038;-62
2022/04/29 00:20:57;;;;;;;5.67;2.97;;;;;;;2.48;75.38;101808.38;4976069;28;20614;-62
2022/04/29 00:23:23;;;;;;;3.07;2.70;;;;;;;2.40;77.46;101825.53;4975997;28;20270;-61
2022/04/29 00:25:49;;;;;;;2.97;2.63;;;;;;;2.11;78.95;101799.06;4976804;28;20141;-62
2022/04/29 00:28:15;;;;;;;3.87;2.70;;;;;;;2.02;79.43;101796.91;4980084;28;20027;-63
2022/04/29 00:30:41;;;;;;;4.03;2.47;;;;;;;2.01;80.47;101800.47;4976942;28;20045;-64
2022/04/29 00:33:07;;;;;;;6.03;3.30;;;;;;;1.96;81.32;101797.22;4975599;28;20035;-62
2022/04/29 00:35:33;;;;;;;4.33;2.87;;;;;;;1.97;81.45;101795.44;4975538;28;20274;-62
2022/04/29 00:38:02;;;;;;;3.17;2.87;;;;;;;1.95;81.79;101787.66;4975588;28;20274;-61
2022/04/29 00:40:30;;;;;;;5.47;2.80;;;;;;;1.99;82.17;101788.34;4975476;28;20278;-61
2022/04/29 00:42:56;;;;;;;3.22;2.90;;;;;;;1.96;81.97;101773.59;4975689;28;20042;-61
2022/04/29 00:45:24;;;;;;;4.73;2.40;;;;;;;2.12;81.48;101790.25;4975436;28;20126;-62
2022/04/29 00:47:50;;;;;;;4.00;2.23;;;;;;;2.11;81.67;101766.66;4975836;28;20772;-62
2022/04/29 00:50:19;;;;;;;3.93;2.57;;;;;;;2.22;81.41;101779.22;4975392;28;20298;-60
2022/04/29 00:52:47;;;;;;;3.33;2.70;;;;;;;2.14;81.15;101761.25;4975600;28;20269;-62
2022/04/29 00:55:14;;;;;;;2.60;2.30;;;;;;;2.27;80.91;101779.81;4975293;28;20038;-62
2022/04/29 00:58:11;;;;;;;3.43;2.60;;;;;;;2.29;80.75;101778.78;4975120;28;20290;-62
2022/04/29 01:00:39;;;;;;;3.07;2.40;;;;;;;2.26;81.28;101773.69;4957725;28;20781;-60
2022/04/29 01:03:06;;;;;;;4.67;2.43;;;;;;;2.16;81.61;101760.22;4975049;28;20612;-63
2022/04/29 01:05:33;;;;;;;2.87;2.33;;;;;;;2.31;81.45;101770.81;4974983;28;20816;-62
2022/04/29 01:07:59;;;;;;;3.70;2.33;;;;;;;2.38;81.25;101766.94;4975040;28;20642;-63
2022/04/29 01:10:25;;;;;;;2.50;2.30;;;;;;;2.41;81.56;101769.38;4974830;28;20293;-61
2022/04/29 01:12:55;;;;;;;3.70;2.60;;;;;;;2.44;81.32;101772.69;4957781;28;20030;-60
2022/04/29 01:15:22;;;;;;;3.90;2.53;;;;;;;2.39;81.46;101753.69;4974995;28;20273;-65
2022/04/29 01:17:52;;;;;;;2.90;2.47;;;;;;;2.37;82.05;101741.56;4974759;28;20791;-61
2022/04/29 01:20:24;;;;;;;2.77;2.40;;;;;;;2.44;81.69;101769.22;4974926;28;20274;-61
2022/04/29 01:22:50;;;;;;;2.53;2.33;;;;;;;2.46;81.57;101767.34;4974739;28;20329;-62
2022/04/29 01:25:15;;;;;;;3.77;2.93;;;;;;;2.35;82.19;101744.28;4975121;28;20274;-62
2022/04/29 01:27:41;;;;;;;4.30;2.40;;;;;;;2.43;82.67;101757.00;4974980;28;20077;-61
2022/04/29 01:30:16;;;;;;;3.33;2.83;;;;;;;2.46;82.57;101756.81;4974617;28;20038;-63
2022/04/29 01:32:42;;;;;;;2.67;2.43;;;;;;;2.49;82.16;101761.91;4960199;28;20050;-60
2022/04/29 01:35:11;;;;;;;2.50;2.30;;;;;;;2.15;82.64;101700.72;4963098;28;20286;-61
2022/04/29 01:37:37;;;;;;;2.63;2.43;;;;;;;2.47;82.31;101746.22;4963187;28;20050;-63
2022/04/29 01:40:04;;;;;;;3.43;2.70;;;;;;;2.57;82.24;101754.44;4974815;28;20376;-62
2022/04/29 01:42:30;;;;;;;2.80;2.60;;;;;;;1.81;82.17;101628.19;4974563;28;20831;-63
2022/04/29 01:44:55;;;;;;;3.00;2.70;;;;;;;2.46;82.70;101738.41;4974377;28;20321;-61
2022/04/29 01:47:21;;;;;;;2.70;2.50;;;;;;;2.55;82.55;101750.19;4974274;28;20073;-61
2022/04/29 01:49:47;;;;;;;3.60;3.30;;;;;;;2.58;82.46;101750.00;4974134;28;20054;-63
2022/04/29 01:52:12;;;;;;;2.70;2.50;;;;;;;2.36;82.46;101713.59;4978796;28;20046;-61
2022/04/29 01:54:38;;;;;;;3.20;2.90;;;;;;;2.64;82.53;101747.06;4981726;28;20386;-61
2022/04/29 01:57:05;;;;;;;3.47;2.67;;;;;;;2.70;82.30;101755.44;4980785;28;20144;-61
2022/04/29 01:59:32;;;;;;;2.97;2.63;;;;;;;2.70;81.65;101744.91;4973667;28;20191;-61
2022/04/29 02:01:59;;;;;;;2.97;2.67;;;;;;;2.68;81.96;101746.78;4973920;28;20282;-61
2022/04/29 02:04:25;;;;;;;6.13;3.07;;;;;;;2.69;82.25;101745.84;4973891;28;20270;-62
2022/04/29 02:06:51;;;;;;;3.33;3.00;;;;;;;2.51;82.64;101706.59;4974157;28;20258;-63
2022/04/29 02:09:17;;;;;;;3.50;3.20;;;;;;;2.71;82.41;101736.09;4973489;28;20321;-61
2022/04/29 02:14:28;;;;;;;2.73;2.53;;;;;;;2.40;81.95;101678.31;4974101;28;20074;-62
2022/04/29 02:16:55;;;;;;;2.73;2.50;;;;;;;2.75;82.03;101748.13;4973851;28;20747;-63
2022/04/29 02:19:22;;;;;;;2.80;2.60;;;;;;;2.64;81.98;101713.72;4973852;28;20270;-61
2022/04/29 02:21:48;;;;;;;2.73;2.53;;;;;;;2.68;82.25;101714.38;4973742;28;20372;-62
2022/04/29 02:24:14;;;;;;;3.57;3.00;;;;;;;2.84;82.36;101732.75;4973965;28;20262;-63
2022/04/29 02:26:40;;;;;;;2.70;2.50;;;;;;;2.10;81.79;101602.91;4975850;28;20270;-61
2022/04/29 02:29:07;;;;;;;3.30;3.00;;;;;;;2.92;82.06;101738.44;4974445;28;20046;-61
2022/04/29 02:31:33;;;;;;;3.03;2.77;;;;;;;2.78;81.77;101715.53;4973423;28;20402;-61
2022/04/29 02:33:58;;;;;;;2.83;2.40;;;;;;;2.86;81.95;101739.59;4973913;28;20270;-61
2022/04/29 02:36:24;;;;;;;3.00;2.70;;;;;;;2.75;82.50;101727.09;4974511;28;20277;-61
2022/04/29 02:38:50;;;;;;;2.60;2.40;;;;;;;2.85;82.06;101735.28;4973857;28;20054;-62
2022/04/29 02:41:16;;;;;;;3.07;2.67;;;;;;;2.83;82.58;101717.91;4973338;28;20039;-61
2022/04/29 02:43:42;;;;;;;3.60;2.43;;;;;;;2.89;82.58;101738.56;4973681;28;20270;-61
2022/04/29 02:46:08;;;;;;;5.00;3.37;;;;;;;2.78;82.47;101716.38;4973584;28;20042;-62
2022/04/29 02:48:33;;;;;;;2.40;2.10;;;;;;;2.89;82.40;101734.19;4973376;28;20073;-62
2022/04/29 02:50:59;;;;;;;2.87;2.57;;;;;;;2.78;82.60;101710.28;4973149;28;20042;-61
2022/04/29 02:53:25;;;;;;;3.10;2.30;;;;;;;2.83;82.05;101723.16;4973165;28;20045;-63
2022/04/29 02:55:50;;;;;;;2.63;2.33;;;;;;;2.91;82.39;101734.09;4973235;28;20039;-61
2022/04/29 02:58:17;;;;;;;4.03;2.63;;;;;;;2.76;81.95;101707.72;4973272;28;20051;-60
2022/04/29 03:00:43;;;;;;;2.90;2.20;;;;;;;2.90;82.11;101735.03;4972897;28;20046;-61
2022/04/29 03:03:08;;;;;;;2.67;2.10;;;;;;;2.84;81.54;101715.16;4972713;28;20768;-62
2022/04/29 03:05:34;;;;;;;4.30;3.07;;;;;;;2.99;81.95;101731.84;4973198;28;20034;-63
2022/04/29 03:08:00;;;;;;;3.73;2.53;;;;;;;3.02;82.11;101739.56;4972949;28;20410;-63
2022/04/29 03:10:25;;;;;;;2.53;2.00;;;;;;;3.03;82.36;101738.63;4973016;28;20552;-61
2022/04/29 03:12:52;;;;;;;3.80;2.27;;;;;;;2.99;82.68;101734.50;4973626;28;20050;-61
2022/04/29 03:15:18;;;;;;;1.97;1.80;;;;;;;2.93;82.66;101737.47;4972909;28;20070;-62
2022/04/29 03:20:34;;;;;;;2.97;1.90;;;;;;;2.89;82.85;101738.56;4973182;28;20296;-63
2022/04/29 03:23:00;;;;;;;3.73;2.33;;;;;;;2.88;82.24;101726.34;4975981;28;20274;-63
2022/04/29 03:25:25;;;;;;;2.40;2.20;;;;;;;2.87;81.78;101740.44;4976912;28;20262;-61
2022/04/29 03:27:51;;;;;;;4.70;2.30;;;;;;;2.71;81.82;101699.25;4976787;28;20490;-62
2022/04/29 03:30:16;;;;;;;4.03;3.40;;;;;;;2.68;81.50;101683.66;4959365;28;20119;-61
2022/04/29 03:32:50;;;;;;;2.13;1.93;;;;;;;3.04;81.79;101754.31;4977183;28;20035;-62
2022/04/29 03:35:16;;;;;;;1.90;1.80;;;;;;;2.84;81.35;101727.47;4977277;28;20038;-62
2022/04/29 03:37:41;;;;;;;2.57;2.37;;;;;;;3.00;81.66;101752.81;4977388;28;20274;-62
2022/04/29 03:40:07;;;;;;;5.47;2.40;;;;;;;3.07;81.33;101748.03;4977735;28;20121;-60
2022/04/29 03:42:59;;;;;;;2.33;2.10;;;;;;;3.14;81.39;101753.78;4981354;28;20058;-62
2022/04/29 03:45:26;;;;;;;3.70;2.60;;;;;;;3.20;81.72;101748.19;4977461;28;20286;-61
2022/04/29 03:47:54;;;;;;;5.47;2.67;;;;;;;3.25;81.35;101751.38;4976805;28;20054;-60
2022/04/29 03:50:23;;;;;;;2.67;2.20;;;;;;;3.24;81.07;101755.78;4976334;28;20297;-62
2022/04/29 03:53:07;;;;;;;4.50;2.37;;;;;;;3.22;81.71;101752.41;4976337;28;20301;-60
2022/04/29 03:55:34;;;;;;;4.50;2.37;;;;;;;3.27;81.74;101765.28;4976846;28;20356;-61
2022/04/29 03:58:02;;;;;;;2.73;2.20;;;;;;;3.22;82.35;101756.81;4976891;28;20286;-61
2022/04/29 04:00:32;;;;;;;5.70;2.47;;;;;;;3.34;81.84;101759.56;4976638;28;20429;-62
2022/04/29 04:03:05;;;;;;;4.90;2.20;;;;;;;3.48;81.96;101752.63;4976656;28;20625;-59
2022/04/29 04:05:32;;;;;;;2.33;2.03;;;;;;;3.46;81.16;101750.06;4976630;28;20588;-63
2022/04/29 04:07:57;;;;;;;2.53;2.33;;;;;;;3.20;81.05;101721.84;4976469;28;20262;-64
2022/04/29 04:10:23;;;;;;;2.37;2.07;;;;;;;3.27;81.55;101747.72;4976102;28;20297;-65
2022/04/29 04:12:50;;;;;;;2.87;2.37;;;;;;;3.24;81.79;101747.91;4976171;28;20041;-61
2022/04/29 04:15:18;;;;;;;3.00;2.80;;;;;;;3.25;81.59;101761.91;4976200;28;20427;-61
2022/04/29 04:17:45;;;;;;;2.90;2.30;;;;;;;3.19;80.88;101757.00;4975971;28;20277;-61
2022/04/29 04:20:12;;;;;;;2.60;2.03;;;;;;;2.72;81.36;101703.59;4976356;28;20757;-62
2022/04/29 04:22:38;;;;;;;4.00;3.37;;;;;;;3.04;82.07;101764.84;4976109;28;20278;-63
2022/04/29 04:25:05;;;;;;;2.33;2.13;;;;;;;3.09;81.98;101752.28;4976281;28;20273;-64
2022/04/29 04:27:32;;;;;;;2.33;2.10;;;;;;;3.09;81.68;101740.91;4976043;28;20034;-62
2022/04/29 04:29:58;;;;;;;2.53;2.10;;;;;;;3.21;79.65;101752.50;4975896;28;20770;-61
2022/04/29 04:32:25;;;;;;;3.67;1.90;;;;;;;3.42;79.05;101773.09;4975243;28;20279;-62
2022/04/29 04:34:57;;;;;;;1.57;1.47;;;;;;;3.60;78.73;101776.44;4975875;28;20638;-59
2022/04/29 04:37:28;;;;;;;1.60;1.37;;;;;;;3.61;76.41;101753.56;4976173;28;20269;-61
2022/04/29 04:39:54;;;;;;;2.00;1.30;;;;;;;3.89;75.67;101773.81;4975945;28;20270;-62
2022/04/29 04:42:21;;;;;;;2.27;1.50;;;;;;;3.91;73.92;101778.03;4975964;28;20270;-63
2022/04/29 04:44:49;;;;;;;1.17;1.07;;;;;;;3.88;73.42;101766.84;4975912;28;20289;-66
2022/04/29 04:47:14;;;;;;;1.53;1.20;;;;;;;4.01;72.07;101779.16;4975569;28;20273;-63
2022/04/29 04:49:40;;;;;;;1.00;0.90;;;;;;;3.90;69.97;101776.34;4975618;28;20270;-61
2022/04/29 04:52:06;;;;;;;1.30;1.20;;;;;;;3.87;70.11;101788.88;4975705;28;20452;-62
2022/04/29 04:54:32;;;;;;;1.00;0.90;;;;;;;3.71;70.94;101791.56;4975669;28;20061;-63
2022/04/29 04:56:58;;;;;;;1.30;1.20;;;;;;;3.42;72.33;101781.00;4975382;28;20173;-63
2022/04/29 04:59:25;;;;;;;1.50;1.17;;;;;;;3.25;74.34;101796.97;4975450;28;20384;-61
2022/04/29 05:01:50;;;;;;;1.83;1.33;;;;;;;3.16;75.82;101799.28;4957874;28;20282;-61
2022/04/29 05:04:16;;;;;;;3.43;1.43;;;;;;;3.01;76.87;101779.97;4975451;28;20274;-61
2022/04/29 05:06:41;;;;;;;2.03;1.30;;;;;;;3.10;77.58;101790.81;4975204;28;20527;-61
2022/04/29 05:09:08;;;;;;;1.50;1.37;;;;;;;3.26;77.07;101796.03;4975520;28;20047;-62
2022/04/29 05:11:34;;;;;;;3.20;1.60;;;;;;;3.39;76.84;101785.63;4984983;28;20117;-63
2022/04/29 05:14:00;;;;;;;2.03;1.70;;;;;;;3.58;75.97;101796.75;4993261;28;20304;-63
2022/04/29 05:16:26;;;;;;;1.53;1.43;;;;;;;3.64;76.33;101796.38;4977057;28;20038;-61
2022/04/29 05:18:52;;;;;;;3.77;1.60;;;;;;;3.38;76.10;101731.25;4994556;28;20038;-62
2022/04/29 05:21:17;;;;;;;1.67;1.47;;;;;;;3.86;75.68;101806.47;4994702;28;20276;-63
2022/04/29 05:23:44;;;;;;;4.93;1.97;;;;;;;3.89;74.75;101806.28;4994437;28;20645;-65
2022/04/29 05:26:09;;;;;;;4.17;1.73;;;;;;;3.82;74.98;101804.97;4993927;28;20045;-62
2022/04/29 05:28:35;;;;;;;1.90;1.70;;;;;;;3.97;75.41;101811.06;4994044;28;20269;-65
2022/04/29 05:31:02;;;;;;;2.00;1.80;;;;;;;3.85;73.66;101794.22;4993953;28;20057;-64
2022/04/29 05:33:29;;;;;;;2.07;1.63;;;;;;;4.00;74.21;101802.97;4996894;28;20085;-62
2022/04/29 05:35:55;;;;;;;2.93;1.80;;;;;;;4.31;73.97;101812.44;5004614;28;20281;-60
2022/04/29 05:38:21;;;;;;;4.13;1.80;;;;;;;4.47;72.50;101807.06;5004527;28;20353;-62
2022/04/29 05:43:31;;;;;;;2.10;1.90;;;;;;;4.32;71.52;101814.97;4993994;28;20073;-62
2022/04/29 05:45:57;;;;;;;2.60;2.10;;;;;;;4.39;71.30;101810.19;4993180;28;20619;-61
2022/04/29 05:48:23;;;;;;;1.90;1.80;;;;;;;4.38;71.27;101824.31;4994592;28;20276;-62
2022/04/29 05:50:48;;;;;;;2.83;1.90;;;;;;;4.18;71.47;101795.72;4994639;28;20049;-63
2022/04/29 05:53:15;;;;;;;6.57;2.57;;;;;;;3.61;72.57;101716.69;4991572;28;20832;-61
2022/04/29 05:55:42;;;;;;;4.67;2.60;;;;;;;4.27;72.21;101832.88;4987802;28;20048;-63
2022/04/29 05:58:10;;;;;;;1.70;1.60;;;;;;;3.96;72.19;101818.13;5007965;28;20289;-62
2022/04/29 06:00:35;;;;;;;4.47;2.77;;;;;;;3.83;72.92;101817.19;5013813;28;20721;-62
2022/04/29 06:03:01;;;;;;;2.93;2.47;;;;;;;3.98;73.19;101842.59;5013113;28;20319;-65
2022/04/29 06:05:27;;;;;;;2.00;1.80;;;;;;;3.86;71.88;101843.34;5013115;28;20038;-65
2022/04/29 06:07:54;;;;;;;3.77;2.20;;;;;;;3.78;72.03;101850.88;4995248;28;20128;-67
2022/04/29 06:10:19;;;;;;;2.40;1.70;;;;;;;3.78;71.04;101840.34;5011995;28;20076;-66
2022/04/29 06:12:45;;;;;;;1.70;1.60;;;;;;;3.90;71.98;101850.13;5013904;28;20323;-66
2022/04/29 06:15:16;;;;;;;1.83;1.73;;;;;;;3.73;70.97;101848.50;5013146;28;20056;-62
2022/04/29 06:17:43;;;;;;;4.50;1.83;;;;;;;3.73;72.41;101863.47;5012867;28;20030;-65
2022/04/29 06:20:10;;;;;;;2.17;1.80;;;;;;;3.83;72.64;101864.63;5012918;28;20273;-67
2022/04/29 06:22:42;;;;;;;3.40;2.00;;;;;;;3.88;72.73;101862.56;4979221;28;20279;-68
2022/04/29 06:25:07;;;;;;;1.83;1.73;;;;;;;4.04;71.75;101871.22;5012544;28;20749;-67
2022/04/29 06:27:33;;;;;;;3.17;1.80;;;;;;;4.03;71.11;101877.44;5012834;28;20300;-68
2022/04/29 06:29:58;;;;;;;1.70;1.60;;;;;;;3.94;71.65;101878.00;5012654;28;20038;-69
2022/04/29 06:32:24;;;;;;;2.33;2.13;;;;;;;3.88;71.84;101878.38;4979743;28;20044;-67
2022/04/29 06:35:10;;;;;;;2.33;2.13;;;;;;;3.59;71.39;101847.66;5112389;27;20400;-69
2022/04/29 06:38:01;;;;;;;1.57;1.43;;;;;;;3.85;70.99;101883.81;5112006;28;20814;-67
2022/04/29 06:40:28;;;;;;;1.70;1.50;;;;;;;3.93;70.76;101892.13;5109845;28;20277;-66
2022/04/29 06:42:53;;;;;;;2.50;2.00;;;;;;;4.06;71.40;101901.94;5111948;28;20048;-66
2022/04/29 06:45:19;;;;;;;3.23;2.60;;;;;;;4.25;71.35;101907.75;5114267;28;20679;-66
2022/04/29 06:47:45;;;;;;;2.73;2.43;;;;;;;4.15;70.86;101888.19;5112283;28;20093;-63
2022/04/29 06:50:11;;;;;;;2.27;1.80;;;;;;;4.25;70.49;101887.53;5111184;28;20265;-65
2022/04/29 06:52:37;;;;;;;6.23;1.97;;;;;;;4.43;69.54;101904.00;5111664;28;20114;-69
2022/04/29 06:55:03;;;;;;;1.80;1.70;;;;;;;4.52;69.11;101877.03;5110930;28;20052;-68
2022/04/29 06:57:30;;;;;;;1.90;1.80;;;;;;;4.68;69.30;101924.44;5112315;28;20065;-71
2022/04/29 06:59:57;;;;;;;2.47;1.80;;;;;;;4.57;69.42;101911.91;5113800;28;20268;-65
2022/04/29 07:02:23;;;;;;;1.90;1.80;;;;;;;4.14;68.94;101884.69;5110388;28;20278;-66
2022/04/29 07:04:49;;;;;;;2.00;1.80;;;;;;;3.67;69.73;101822.53;5111324;28;20821;-63
2022/04/29 07:07:16;;;;;;;3.17;1.70;;;;;;;4.18;70.09;101911.72;5110995;28;20344;-67
2022/04/29 07:09:43;;;;;;;1.70;1.60;;;;;;;4.07;69.75;101928.19;5110785;28;20040;-64
2022/04/29 07:12:09;;;;;;;1.77;1.40;;;;;;;4.04;69.85;101928.34;5110707;28;20266;-67
2022/04/29 07:14:36;;;;;;;2.03;1.77;;;;;;;3.86;71.07;101935.59;5110637;28;20289;-62
2022/04/29 07:17:03;;;;;;;1.23;1.13;;;;;;;3.55;72.39;101938.31;5113637;28;20349;-67
2022/04/29 07:19:29;;;;;;;2.70;1.63;;;;;;;3.50;74.03;101945.66;5110421;28;20272;-65
2022/04/29 07:21:54;;;;;;;4.03;2.13;;;;;;;3.59;73.71;101953.00;5110394;28;20647;-66
2022/04/29 07:24:23;;;;;;;8.60;1.70;;;;;;;3.04;74.16;101832.44;5109444;28;20567;-65
2022/04/29 07:26:57;;;;;;;1.60;1.50;;;;;;;3.50;72.38;101862.22;5111428;28;20065;-68
2022/04/29 07:29:29;;;;;;;2.03;1.60;;;;;;;4.51;71.96;101959.78;5111771;28;20339;-71
2022/04/29 07:31:55;;;;;;;2.20;2.00;;;;;;;4.88;70.44;101955.69;5113822;28;20271;-68
2022/04/29 07:41:44;;;;;;;2.80;2.13;;;;;;;4.91;70.28;101922.97;5105151;28;20354;-65
2022/04/29 07:42:56;;;;;;;3.97;1.67;;;;;;;4.73;68.24;101955.81;5095433;28;20269;-67
2022/04/29 07:45:22;;;;;;;2.60;1.30;;;;;;;4.44;68.59;101947.06;5102201;28;20278;-66
2022/04/29 07:47:47;;;;;;;5.13;1.50;;;;;;;4.45;68.88;101975.97;5095624;28;20324;-69
2022/04/29 07:50:16;;;;;;;2.00;1.60;;;;;;;4.46;69.88;101982.09;5099270;28;20040;-69
2022/04/29 07:52:42;;;;;;;1.70;1.27;;;;;;;4.17;68.04;101942.50;5077795;28;20036;-62
2022/04/29 07:55:08;;;;;;;2.93;2.03;;;;;;;4.28;69.64;101994.59;5078194;28;20042;-67
2022/04/29 07:57:34;;;;;;;2.63;1.70;;;;;;;4.10;70.19;101972.84;5077989;28;20035;-67
2022/04/29 08:00:01;;;;;;;9.07;1.50;;;;;;;4.20;67.89;101994.22;5078154;28;20035;-68
2022/04/29 08:02:31;;;;;;;2.13;1.57;;;;;;;4.42;69.05;101993.78;5095275;28;20270;-66
2022/04/29 08:04:57;;;;;;;;;;;;;;;4.62;67.85;102002.16;5095446;28;20281;-67
2022/04/29 08:07:22;;;;;;;1.30;1.20;;;;;;;4.28;68.24;101965.59;5097500;28;20282;-66
2022/04/29 08:09:47;;;;;;;2.07;1.30;;;;;;;4.34;68.74;102007.44;5094247;28;20036;-64
2022/04/29 08:12:14;;;;;;;1.93;1.50;;;;;;;3.77;69.97;101959.00;5094364;28;20533;-68
2022/04/29 08:14:40;;;;;;;2.40;1.80;;;;;;;3.99;69.89;101984.00;5075836;28;20043;-68
2022/04/29 08:17:06;;;;;;;5.63;1.80;;;;;;;4.21;68.86;101986.22;5094275;28;20270;-66
2022/04/29 08:19:33;;;;;;;1.90;1.77;;;;;;;4.55;68.85;102021.94;5093927;28;20278;-65
2022/04/29 08:21:59;;;;;;;2.23;2.03;;;;;;;4.78;66.99;101990.69;5077023;28;20121;-67
2022/04/29 08:24:26;;;;;;;2.10;1.80;;;;;;;5.03;65.98;102003.19;5059875;28;20898;-66
2022/04/29 08:26:52;;;;;;;3.60;1.73;;;;;;;5.34;66.18;102005.59;5060079;28;20398;-67
2022/04/29 08:29:17;;;;;;;4.07;1.70;;;;;;;5.61;64.08;101989.72;5095051;28;20272;-69
2022/04/29 08:31:43;;;;;;;1.80;1.70;;;;;;;5.93;61.94;101994.72;5076129;28;20039;-66
2022/04/29 08:34:10;;;;;;;1.70;1.53;;;;;;;5.95;62.10;101979.59;5095698;28;20143;-69
2022/04/29 08:36:37;;;;;;;1.63;1.53;;;;;;;5.60;63.76;102011.81;5095579;28;20040;-72
2022/04/29 08:39:06;;;;;;;1.40;1.30;;;;;;;5.12;65.00;102027.22;5079235;28;20301;-69
2022/04/29 08:41:38;;;;;;;1.20;1.10;;;;;;;4.43;65.68;102000.75;5060058;28;20339;-65
2022/04/29 08:44:08;;;;;;;3.13;1.10;;;;;;;2.96;68.04;101853.94;5094276;28;20266;-68
2022/04/29 08:46:34;;;;;;;4.77;1.30;;;;;;;3.75;69.25;101988.06;5076287;28;20266;-69
2022/04/29 08:49:02;;;;;;;1.40;1.30;;;;;;;3.82;69.38;101992.06;5042868;28;20369;-65
2022/04/29 08:51:29;;;;;;;3.67;1.43;;;;;;;3.28;68.04;101936.34;5093625;28;20293;-68
2022/04/29 08:53:57;;;;;;;3.43;1.60;;;;;;;3.57;69.91;101986.50;5064968;28;20309;-73
2022/04/29 08:59:08;;;;;;;1.90;1.70;;;;;;;3.93;69.12;102023.91;5076652;28;20290;-67
2022/04/29 09:01:34;;;;;;;3.20;1.57;;;;;;;3.71;69.07;102020.78;5094251;28;20278;-72
2022/04/29 09:04:01;;;;;;;1.63;1.53;;;;;;;3.53;69.16;102000.78;5059715;28;20280;-69
2022/04/29 09:06:27;;;;;;;4.27;1.70;;;;;;;3.73;69.44;102011.84;5065639;28;20277;-70
2022/04/29 09:09:10;;;;;;;3.03;1.70;;;;;;;3.99;68.59;102023.53;5078762;28;20266;-67
2022/04/29 09:11:36;;;;;;;4.67;2.10;;;;;;;4.39;67.90;102047.56;5060468;28;20339;-67
2022/04/29 09:14:22;;;;;;;2.50;2.30;;;;;;;4.84;66.21;102061.56;5094278;28;20778;-65
2022/04/29 09:16:49;;;;;;;2.77;2.03;;;;;;;4.84;66.97;102053.63;5077161;28;20032;-64
2022/04/29 09:19:35;;;;;;;3.97;2.07;;;;;;;4.07;69.63;102024.91;5094755;28;20274;-63
2022/04/29 09:22:09;;;;;;;3.03;1.30;;;;;;;3.77;71.15;102080.22;5095340;28;20262;-63
2022/04/29 09:24:35;;;;;;;2.93;1.80;;;;;;;3.44;72.49;102073.25;5077672;28;20298;-62
2022/04/29 09:27:03;;;;;;;1.43;1.10;;;;;;;3.42;72.90;102067.22;5096785;28;20352;-62
2022/04/29 09:29:29;;;;;;;4.00;1.53;;;;;;;3.60;72.58;102054.81;5097040;28;20276;-63
2022/04/29 09:31:59;;;;;;;1.73;1.10;;;;;;;3.79;70.04;102062.53;5094177;28;20260;-62
2022/04/29 09:34:45;;;;;;;1.73;1.30;;;;;;;3.56;69.59;102024.31;5093052;28;20308;-62
2022/04/29 09:37:19;;;;;;;2.40;1.53;;;;;;;4.04;69.74;102068.06;5075127;28;20282;-63
2022/04/29 09:39:52;;;;;;;2.33;1.80;;;;;;;4.02;69.44;102070.81;5093153;28;20266;-64
2022/04/29 09:42:17;;;;;;;1.70;1.60;;;;;;;3.85;70.41;102085.91;5093269;28;20273;-64
2022/04/29 09:44:45;;;;;;;1.80;1.70;;;;;;;3.86;71.25;102096.34;5096486;28;20649;-62
2022/04/29 09:47:14;;;;;;;2.20;1.63;;;;;;;3.89;71.55;102101.44;5061757;28;20032;-64
2022/04/29 09:50:05;;;;;;;2.37;1.73;;;;;;;3.95;71.83;102090.53;5079977;28;20274;-64
2022/04/29 09:52:31;;;;;;;2.90;1.67;;;;;;;4.19;70.60;102082.16;5092328;28;20274;-64
2022/04/29 09:55:09;;;;;;;3.43;1.60;;;;;;;4.77;68.88;102099.81;5092140;28;20294;-64
2022/04/29 09:57:46;;;;;;;2.60;2.40;;;;;;;5.42;68.19;102093.13;5092306;28;20043;-63
2022/04/29 10:00:12;;;;;;;2.27;2.07;;;;;;;5.54;65.19;102092.34;5092113;28;20054;-63
2022/04/29 10:02:40;;;;;;;7.00;1.93;;;;;;;5.33;64.65;102077.00;5092482;28;20254;-63
2022/04/29 10:05:06;;;;;;;3.80;1.90;;;;;;;5.17;64.20;102091.16;5093497;28;20357;-63
2022/04/29 10:07:33;;;;;;;1.63;1.40;;;;;;;4.93;63.82;102090.06;5092956;28;20349;-64
2022/04/29 10:09:59;;;;;;;2.53;1.67;;;;;;;4.95;63.94;102101.38;5091722;28;20044;-63
2022/04/29 10:12:27;;;;;;;6.53;2.73;;;;;;;4.73;62.41;102093.03;5091874;28;20779;-63
2022/04/29 10:14:58;;;;;;;2.03;1.63;;;;;;;4.59;61.64;102097.34;5091587;28;20142;-66
2022/04/29 10:23:06;;;;;;;1.50;1.40;;;;;;;5.13;54.11;102081.72;5090283;28;20377;-65
2022/04/29 10:25:33;;;;;;;2.43;1.83;;;;;;;5.50;54.07;102072.34;5072357;28;20278;-65
2022/04/29 10:28:00;;;;;;;1.40;1.30;;;;;;;5.54;52.30;102046.59;5090610;28;20285;-66
2022/04/29 10:30:28;;;;;;;3.97;2.70;;;;;;;5.68;52.35;102080.88;5090273;28;20305;-68
2022/04/29 10:33:03;;;;;;;4.55;3.00;;;;;;;5.45;51.30;102092.06;5089483;28;20554;-66
2022/04/29 10:35:58;;;;;;;15.60;8.90;;;;;;;5.25;52.64;102088.91;5091233;28;20116;-66
2022/04/29 10:38:32;;;;;;;10.50;4.03;;;;;;;5.33;51.32;102108.69;5073598;28;20369;-66
2022/04/29 10:41:06;;;;;;;1.37;1.27;;;;;;;5.16;50.73;102120.31;5073200;28;20270;-66
2022/04/29 10:44:04;;;;;;;3.77;2.43;;;;;;;5.06;49.79;102101.53;5091462;28;20610;-67
2022/04/29 10:46:29;;;;;;;3.03;2.00;;;;;;;5.20;49.98;102117.41;5084373;28;20269;-66
2022/04/29 10:48:55;;;;;;;3.03;1.90;;;;;;;5.14;52.49;102099.28;5099811;28;20732;-67
2022/04/29 10:51:21;;;;;;;1.47;1.23;;;;;;;5.57;51.08;102112.44;5102940;28;20062;-64
2022/04/29 10:53:49;;;;;;;1.67;1.57;;;;;;;5.92;50.18;102107.56;5101509;28;20785;-65
2022/04/29 10:56:30;;;;;;;2.10;1.27;;;;;;;5.96;46.43;102118.78;5101496;28;20115;-68
2022/04/29 10:59:20;;;;;;;1.47;1.10;;;;;;;5.72;46.29;102103.53;5108954;28;20271;-67
2022/04/29 11:02:04;;;;;;;3.77;1.57;;;;;;;5.62;46.92;102106.88;5108277;28;20261;-69
2022/04/29 11:04:34;;;;;;;1.73;1.37;;;;;;;5.65;47.25;102131.31;5112033;28;20275;-68
2022/04/29 11:07:00;;;;;;;2.17;1.20;;;;;;;5.51;44.48;102124.25;5112342;28;20348;-67
2022/04/29 11:09:27;;;;;;;1.10;0.90;;;;;;;5.45;43.28;102135.19;5112094;28;20381;-64
2022/04/29 11:11:53;;;;;;;3.80;1.90;;;;;;;5.58;43.46;102136.13;5111751;28;20078;-67
2022/04/29 11:14:19;;;;;;;2.77;1.60;;;;;;;5.82;42.89;102128.44;5111498;28;20293;-67
2022/04/29 11:16:55;;;;;;;1.67;1.30;;;;;;;5.71;40.39;102082.47;5093266;28;20262;-63
2022/04/29 11:19:28;;;;;;;4.00;1.57;;;;;;;6.05;41.27;102141.97;5112212;28;20085;-63
2022/04/29 11:24:52;;;;;;;1.70;1.23;;;;;;;5.76;38.54;102143.81;5115396;28;20276;-67
2022/04/29 11:27:28;;;;;;;3.43;1.20;;;;;;;5.74;39.23;102146.56;5115472;28;20356;-62
2022/04/29 11:29:56;;;;;;;1.73;1.63;;;;;;;5.89;39.74;102140.34;5115338;28;20265;-63
2022/04/29 11:32:25;;;;;;;1.70;1.58;;;;;;;5.98;38.43;102125.66;5115151;28;20641;-67
2022/04/29 11:34:55;;;;;;;;;;;;;;;6.18;39.22;102156.13;5115404;28;20645;-64
2022/04/29 11:37:28;;;;;;;4.67;1.73;;;;;;;6.22;39.00;102160.25;5115129;28;19919;-65
2022/04/29 11:39:55;;;;;;;3.10;1.33;;;;;;;6.12;39.24;102161.81;5096894;28;20769;-63
2022/04/29 11:42:21;;;;;;;7.77;1.40;;;;;;;6.07;40.78;102164.78;5115098;28;20155;-61
2022/04/29 11:44:49;;;;;;;1.63;1.50;;;;;;;6.10;40.30;102169.00;5114731;28;20257;-62
2022/04/29 11:47:16;;;;;;;4.25;1.65;;;;;;;6.04;39.70;102143.78;5114983;28;20036;-63
2022/04/29 11:49:43;;;;;;;6.60;2.87;;;;;;;6.18;40.99;102167.56;5114953;28;20167;-73
2022/04/29 11:52:21;;;;;;;2.17;1.40;;;;;;;6.16;37.51;102176.53;5115223;28;20825;-73
2022/04/29 11:54:54;;;;;;;5.88;1.92;;;;;;;6.09;37.87;102180.53;5114899;28;20456;-70
2022/04/29 11:57:21;;;;;;;3.60;1.60;;;;;;;6.01;36.55;102162.50;5114819;28;20558;-70
2022/04/29 11:59:46;;;;;;;8.50;3.27;;;;;;;6.17;37.03;102159.72;5115356;28;20352;-63
2022/04/29 12:02:17;;;;;;;5.60;2.37;;;;;;;6.41;36.07;102142.22;5115876;28;20354;-61
2022/04/29 12:05:02;;;;;;;1.40;1.20;;;;;;;6.41;34.74;102168.69;5115227;28;20043;-63